Time,TemperatureF,DewpointF,PressureIn,WindDirection,WindDirectionDegrees,WindSpeedMPH,WindSpeedGustMPH,Humidity,HourlyPrecipIn,Conditions,Clouds,dailyrainin,SoftwareType,DateUTC
2013-11-09 00:01:00,27.5,23.9,30.33,SW,225,1.0,1.0,86,0.00,,,0.00,Wunderground v.1.15,2013-11-09 05:01:00,
2013-11-09 00:02:00,27.6,24.0,30.33,SW,225,1.0,1.0,86,0.00,,,0.00,Wunderground v.1.15,2013-11-09 05:02:00,
2013-11-09 00:03:00,27.6,24.0,30.33,SW,225,1.0,1.0,86,0.00,,,0.00,Wunderground v.1.15,2013-11-09 05:03:00,
2013-11-09 00:08:00,27.7,24.1,30.33,SW,225,1.0,1.0,86,0.00,,,0.00,Wunderground v.1.15,2013-11-09 05:08:00,
2013-11-09 00:10:00,27.6,24.0,30.33,SW,225,0.0,0.0,86,0.00,,,0.00,Wunderground v.1.15,2013-11-09 05:10:00,
2013-11-09 00:11:00,27.6,24.0,30.33,SW,225,0.0,1.0,86,0.00,,,0.00,Wunderground v.1.15,2013-11-09 05:11:00,
2013-11-09 00:16:00,27.2,23.8,30.33,SW,225,0.0,1.0,87,0.00,,,0.00,Wunderground v.1.15,2013-11-09 05:16:00,
2013-11-09 00:22:00,27.0,24.0,30.33,SW,225,0.0,1.0,88,0.00,,,0.00,weatherlink.com 1.10,2013-11-09 05:22:00,
2013-11-09 00:27:00,26.7,23.6,30.33,SW,225,0.0,0.0,88,0.00,,,0.00,Wunderground v.1.15,2013-11-09 05:27:00,
2013-11-09 00:38:00,26.5,24.0,30.34,SW,225,0.0,1.0,89,0.00,,,0.00,weatherlink.com 1.10,2013-11-09 05:38:00,
2013-11-09 00:52:00,26.5,24.0,30.34,SW,225,1.0,1.0,89,0.00,,,0.00,weatherlink.com 1.10,2013-11-09 05:52:00,
2013-11-09 01:07:00,26.5,24.0,30.34,South,184,0.0,2.0,89,0.00,,,0.00,weatherlink.com 1.10,2013-11-09 06:07:00,
2013-11-09 01:22:00,26.1,24.0,30.34,South,184,0.0,1.0,90,0.00,,,0.00,weatherlink.com 1.10,2013-11-09 06:22:00,
2013-11-09 01:37:00,26.2,24.0,30.34,South,184,0.0,0.0,90,0.00,,,0.00,weatherlink.com 1.10,2013-11-09 06:37:00,
2013-11-09 01:52:00,25.7,23.0,30.34,South,184,0.0,0.0,90,0.00,,,0.00,weatherlink.com 1.10,2013-11-09 06:52:00,
2013-11-09 02:07:00,25.3,23.0,30.33,South,184,0.0,1.0,91,0.00,,,0.00,weatherlink.com 1.10,2013-11-09 07:07:00,
2013-11-09 02:22:00,25.4,23.0,30.34,South,184,1.0,1.0,91,0.00,,,0.00,weatherlink.com 1.10,2013-11-09 07:22:00,
2013-11-09 02:37:00,25.8,23.0,30.34,South,184,0.0,1.0,90,0.00,,,0.00,weatherlink.com 1.10,2013-11-09 07:37:00,
2013-11-09 02:52:00,25.1,23.0,30.33,South,184,0.0,0.0,91,0.00,,,0.00,weatherlink.com 1.10,2013-11-09 07:52:00,
2013-11-09 03:07:00,25.2,23.0,30.33,South,184,1.0,2.0,91,0.00,,,0.00,weatherlink.com 1.10,2013-11-09 08:07:00,
2013-11-09 03:22:00,25.3,23.0,30.33,South,184,0.0,1.0,91,0.00,,,0.00,weatherlink.com 1.10,2013-11-09 08:22:00,
2013-11-09 03:37:00,25.1,23.0,30.34,South,184,0.0,1.0,92,0.00,,,0.00,weatherlink.com 1.10,2013-11-09 08:37:00,
2013-11-09 03:52:00,25.1,23.0,30.34,South,184,0.0,1.0,92,0.00,,,0.00,weatherlink.com 1.10,2013-11-09 08:52:00,
2013-11-09 04:07:00,25.7,24.0,30.34,South,184,0.0,1.0,92,0.00,,,0.00,weatherlink.com 1.10,2013-11-09 09:07:00,
2013-11-09 04:22:00,26.4,24.0,30.34,South,184,0.0,2.0,90,0.00,,,0.00,weatherlink.com 1.10,2013-11-09 09:22:00,
2013-11-09 04:37:00,25.2,23.0,30.33,NE,39,0.0,1.0,91,0.00,,,0.00,weatherlink.com 1.10,2013-11-09 09:37:00,
2013-11-09 04:52:00,25.1,23.0,30.33,NE,39,1.0,1.0,92,0.00,,,0.00,weatherlink.com 1.10,2013-11-09 09:52:00,
2013-11-09 05:07:00,24.7,23.0,30.32,NE,39,1.0,1.0,92,0.00,,,0.00,weatherlink.com 1.10,2013-11-09 10:07:00,
2013-11-09 05:22:00,24.5,23.0,30.32,NE,39,0.0,1.0,93,0.00,,,0.00,weatherlink.com 1.10,2013-11-09 10:22:00,
2013-11-09 05:37:00,24.4,23.0,30.33,NE,39,0.0,0.0,93,0.00,,,0.00,weatherlink.com 1.10,2013-11-09 10:37:00,
2013-11-09 05:52:00,24.8,23.0,30.33,NE,39,0.0,0.0,93,0.00,,,0.00,weatherlink.com 1.10,2013-11-09 10:52:00,
2013-11-09 06:07:00,25.2,24.0,30.33,NE,39,0.0,1.0,93,0.00,,,0.00,weatherlink.com 1.10,2013-11-09 11:07:00,
2013-11-09 06:22:00,25.5,24.0,30.34,SW,234,2.0,2.0,92,0.00,,,0.00,weatherlink.com 1.10,2013-11-09 11:22:00,
2013-11-09 06:38:00,25.9,24.0,30.34,SSE,167,0.0,3.0,91,0.00,,,0.00,weatherlink.com 1.10,2013-11-09 11:38:00,
2013-11-09 06:53:00,26.2,24.0,30.33,SSE,167,1.0,1.0,90,0.00,,,0.00,weatherlink.com 1.10,2013-11-09 11:53:00,
2013-11-09 07:08:00,26.1,24.0,30.34,SSE,167,0.0,0.0,91,0.00,,,0.00,weatherlink.com 1.10,2013-11-09 12:08:00,
2013-11-09 07:23:00,25.7,24.0,30.34,SSE,167,0.0,1.0,91,0.00,,,0.00,weatherlink.com 1.10,2013-11-09 12:23:00,
2013-11-09 07:38:00,25.5,24.0,30.33,SSE,167,0.0,1.0,92,0.00,,,0.00,weatherlink.com 1.10,2013-11-09 12:38:00,
2013-11-09 07:53:00,25.9,24.0,30.33,SSE,167,0.0,1.0,92,0.00,,,0.00,weatherlink.com 1.10,2013-11-09 12:53:00,
2013-11-09 07:59:00,26.3,24.3,30.33,SSE,167,1.0,1.0,92,0.00,,,0.00,Wunderground v.1.15,2013-11-09 12:59:00,
2013-11-09 08:06:00,26.8,24.8,30.33,SSE,167,1.0,1.0,92,0.00,,,0.00,Wunderground v.1.15,2013-11-09 13:06:00,
2013-11-09 08:12:00,27.1,24.8,30.33,SSE,167,0.0,0.0,91,0.00,,,0.00,Wunderground v.1.15,2013-11-09 13:12:00,
2013-11-09 08:17:00,27.5,25.2,30.33,SSE,167,0.0,0.0,91,0.00,,,0.00,Wunderground v.1.15,2013-11-09 13:17:00,
2013-11-09 08:23:00,28.0,26.0,30.33,SSE,167,0.0,1.0,90,0.00,,,0.00,weatherlink.com 1.10,2013-11-09 13:23:00,
2013-11-09 08:38:00,28.9,26.0,30.33,SSW,202,2.0,2.0,89,0.00,,,0.00,weatherlink.com 1.10,2013-11-09 13:38:00,
2013-11-09 08:53:00,30.7,27.0,30.32,SW,236,0.0,2.0,85,0.00,,,0.00,weatherlink.com 1.10,2013-11-09 13:53:00,
2013-11-09 09:08:00,32.0,28.0,30.31,SW,235,1.0,2.0,84,0.00,,,0.00,weatherlink.com 1.10,2013-11-09 14:08:00,
2013-11-09 09:23:00,33.7,28.0,30.31,South,177,0.0,2.0,80,0.00,,,0.00,weatherlink.com 1.10,2013-11-09 14:23:00,
2013-11-09 09:38:00,35.2,29.0,30.29,South,177,0.0,1.0,77,0.00,,,0.00,weatherlink.com 1.10,2013-11-09 14:38:00,
2013-11-09 09:53:00,37.5,29.0,30.29,SW,217,1.0,2.0,71,0.00,,,0.00,weatherlink.com 1.10,2013-11-09 14:53:00,
2013-11-09 10:08:00,39.5,30.0,30.28,SW,220,1.0,2.0,69,0.00,,,0.00,weatherlink.com 1.10,2013-11-09 15:08:00,
2013-11-09 10:23:00,41.2,30.0,30.26,SSW,207,0.0,1.0,65,0.00,,,0.00,weatherlink.com 1.10,2013-11-09 15:23:00,
2013-11-09 10:38:00,43.9,29.0,30.25,South,179,1.0,2.0,56,0.00,,,0.00,weatherlink.com 1.10,2013-11-09 15:38:00,
2013-11-09 10:54:00,45.8,29.0,30.24,South,189,2.0,3.0,52,0.00,,,0.00,weatherlink.com 1.10,2013-11-09 15:54:00,
2013-11-09 11:05:00,47.5,28.8,30.24,SW,219,1.0,2.0,48,0.00,,,0.00,Wunderground v.1.15,2013-11-09 16:05:00,
2013-11-09 11:12:00,48.2,28.0,30.24,SSW,196,1.0,3.0,46,0.00,,,0.00,weatherlink.com 1.10,2013-11-09 16:12:00,
2013-11-09 11:17:00,48.5,28.1,30.23,South,186,1.0,2.0,45,0.00,,,0.00,Wunderground v.1.15,2013-11-09 16:17:00,
2013-11-09 11:23:00,49.7,28.6,30.23,NW,326,1.0,2.0,44,0.00,,,0.00,Wunderground v.1.15,2013-11-09 16:23:00,
2013-11-09 11:29:00,50.0,27.2,30.22,SE,132,2.0,3.0,41,0.00,,,0.00,Wunderground v.1.15,2013-11-09 16:29:00,
2013-11-09 11:34:00,51.4,27.9,30.21,ENE,59,1.0,3.0,40,0.00,,,0.00,Wunderground v.1.15,2013-11-09 16:34:00,
2013-11-09 11:39:00,51.4,27.2,30.21,NNW,336,1.0,2.0,39,0.00,,,0.00,Wunderground v.1.15,2013-11-09 16:39:00,
2013-11-09 11:45:00,51.7,27.5,30.20,SSE,161,1.0,1.0,39,0.00,,,0.00,Wunderground v.1.15,2013-11-09 16:45:00,
2013-11-09 11:50:00,52.1,25.9,30.20,SSW,198,1.0,1.0,36,0.00,,,0.00,Wunderground v.1.15,2013-11-09 16:50:00,
2013-11-09 11:56:00,52.6,25.7,30.20,NNW,329,2.0,2.0,35,0.00,,,0.00,Wunderground v.1.15,2013-11-09 16:56:00,
2013-11-09 12:02:00,53.2,24.8,30.20,SW,227,2.0,4.0,33,0.00,,,0.00,Wunderground v.1.15,2013-11-09 17:02:00,
2013-11-09 12:12:00,52.9,24.0,30.19,SE,136,4.0,8.0,33,0.00,,,0.00,weatherlink.com 1.10,2013-11-09 17:12:00,
2013-11-09 12:18:00,52.7,24.4,30.18,SSW,196,3.0,5.0,33,0.00,,,0.00,Wunderground v.1.15,2013-11-09 17:18:00,
2013-11-09 12:25:00,52.7,24.0,30.18,SE,137,3.0,8.0,33,0.00,,,0.00,weatherlink.com 1.10,2013-11-09 17:25:00,
2013-11-09 12:32:00,53.5,24.3,30.16,South,189,3.0,3.0,32,0.00,,,0.00,Wunderground v.1.15,2013-11-09 17:32:00,
2013-11-09 12:37:00,54.0,24.8,30.16,WSW,253,2.0,4.0,32,0.00,,,0.00,Wunderground v.1.15,2013-11-09 17:37:00,
2013-11-09 12:43:00,54.7,25.4,30.15,South,173,2.0,3.0,32,0.00,,,0.00,Wunderground v.1.15,2013-11-09 17:43:00,
2013-11-09 12:49:00,56.0,25.8,30.15,SSW,194,1.0,6.0,31,0.00,,,0.00,Wunderground v.1.15,2013-11-09 17:49:00,
2013-11-09 12:54:00,55.2,25.8,30.15,SSW,206,2.0,5.0,32,0.00,,,0.00,Wunderground v.1.15,2013-11-09 17:54:00,
2013-11-09 12:59:00,55.1,25.0,30.14,ENE,76,3.0,5.0,31,0.00,,,0.00,Wunderground v.1.15,2013-11-09 17:59:00,
2013-11-09 13:05:00,56.2,26.7,30.14,ESE,111,2.0,3.0,32,0.00,,,0.00,Wunderground v.1.15,2013-11-09 18:05:00,
2013-11-09 13:10:00,55.6,24.6,30.14,South,187,2.0,4.0,30,0.00,,,0.00,Wunderground v.1.15,2013-11-09 18:10:00,
2013-11-09 13:16:00,56.1,25.8,30.13,NW,319,3.0,4.0,31,0.00,,,0.00,Wunderground v.1.15,2013-11-09 18:16:00,
2013-11-09 13:22:00,56.2,25.9,30.13,South,173,2.0,2.0,31,0.00,,,0.00,Wunderground v.1.15,2013-11-09 18:22:00,
2013-11-09 13:28:00,56.0,25.8,30.12,SSW,198,2.0,2.0,31,0.00,,,0.00,Wunderground v.1.15,2013-11-09 18:28:00,
2013-11-09 13:33:00,56.0,27.3,30.12,SW,229,2.0,3.0,33,0.00,,,0.00,Wunderground v.1.15,2013-11-09 18:33:00,
2013-11-09 13:41:00,55.6,25.0,30.12,SW,228,2.0,4.0,31,0.00,,,0.00,weatherlink.com 1.10,2013-11-09 18:41:00,
2013-11-09 13:47:00,56.7,26.4,30.11,SSW,199,2.0,3.0,31,0.00,,,0.00,Wunderground v.1.15,2013-11-09 18:47:00,
2013-11-09 13:52:00,56.5,25.4,30.11,South,177,2.0,3.0,30,0.00,,,0.00,Wunderground v.1.15,2013-11-09 18:52:00,
2013-11-09 13:59:00,58.4,26.2,30.11,East,88,1.0,3.0,29,0.00,,,0.00,Wunderground v.1.15,2013-11-09 18:59:00,
2013-11-09 14:04:00,57.2,26.0,30.11,SSW,194,1.0,3.0,30,0.00,,,0.00,Wunderground v.1.15,2013-11-09 19:04:00,
2013-11-09 14:09:00,57.6,25.5,30.11,SSW,198,2.0,4.0,29,0.00,,,0.00,Wunderground v.1.15,2013-11-09 19:09:00,
2013-11-09 14:15:00,57.1,25.9,30.10,South,187,2.0,4.0,30,0.00,,,0.00,Wunderground v.1.15,2013-11-09 19:15:00,
2013-11-09 14:21:00,57.4,26.2,30.10,SSE,168,1.0,4.0,30,0.00,,,0.00,Wunderground v.1.15,2013-11-09 19:21:00,
2013-11-09 14:27:00,57.2,25.0,30.09,SW,234,2.0,7.0,29,0.00,,,0.00,weatherlink.com 1.10,2013-11-09 19:27:00,
2013-11-09 14:32:00,56.8,27.2,30.09,South,188,2.0,2.0,32,0.00,,,0.00,Wunderground v.1.15,2013-11-09 19:32:00,
2013-11-09 14:38:00,57.2,26.0,30.08,SSW,198,2.0,3.0,30,0.00,,,0.00,Wunderground v.1.15,2013-11-09 19:38:00,
2013-11-09 14:44:00,57.5,26.3,30.08,West,267,2.0,2.0,30,0.00,,,0.00,Wunderground v.1.15,2013-11-09 19:44:00,
2013-11-09 14:49:00,57.4,26.2,30.08,East,82,2.0,3.0,30,0.00,,,0.00,Wunderground v.1.15,2013-11-09 19:49:00,
2013-11-09 14:55:00,57.6,26.4,30.08,South,182,2.0,3.0,30,0.00,,,0.00,Wunderground v.1.15,2013-11-09 19:55:00,
2013-11-09 15:00:00,57.4,26.2,30.07,South,183,2.0,4.0,30,0.00,,,0.00,Wunderground v.1.15,2013-11-09 20:00:00,
2013-11-09 15:06:00,57.7,26.4,30.07,SE,130,2.0,4.0,30,0.00,,,0.00,Wunderground v.1.15,2013-11-09 20:06:00,
2013-11-09 15:11:00,57.1,26.7,30.07,South,184,2.0,3.0,31,0.00,,,0.00,Wunderground v.1.15,2013-11-09 20:11:00,
2013-11-09 15:20:00,57.0,27.4,30.07,WSW,239,3.0,3.0,32,0.00,,,0.00,Wunderground v.1.15,2013-11-09 20:20:00,
2013-11-09 15:26:00,57.2,28.3,30.07,SW,221,2.0,3.0,33,0.00,,,0.00,Wunderground v.1.15,2013-11-09 20:26:00,
2013-11-09 15:31:00,56.8,27.0,30.07,SSW,209,2.0,6.0,32,0.00,,,0.00,weatherlink.com 1.10,2013-11-09 20:31:00,
2013-11-09 15:37:00,56.8,27.2,30.08,South,188,2.0,5.0,32,0.00,,,0.00,Wunderground v.1.15,2013-11-09 20:37:00,
2013-11-09 15:42:00,56.7,27.1,30.08,ENE,69,2.0,3.0,32,0.00,,,0.00,Wunderground v.1.15,2013-11-09 20:42:00,
2013-11-09 15:47:00,56.5,27.7,30.07,SSW,204,2.0,4.0,33,0.00,,,0.00,Wunderground v.1.15,2013-11-09 20:47:00,
2013-11-09 15:53:00,56.3,26.8,30.07,SSE,165,2.0,2.0,32,0.00,,,0.00,Wunderground v.1.15,2013-11-09 20:53:00,
2013-11-09 15:59:00,56.4,26.9,30.08,SE,138,2.0,2.0,32,0.00,,,0.00,Wunderground v.1.15,2013-11-09 20:59:00,
2013-11-09 16:06:00,56.4,29.1,30.08,SSW,195,2.0,4.0,35,0.00,,,0.00,Wunderground v.1.15,2013-11-09 21:06:00,
2013-11-09 16:11:00,55.9,27.9,30.07,SSW,207,1.0,2.0,34,0.00,,,0.00,Wunderground v.1.15,2013-11-09 21:11:00,
2013-11-09 16:17:00,55.4,28.0,30.07,SSW,193,1.0,3.0,35,0.00,,,0.00,weatherlink.com 1.10,2013-11-09 21:17:00,
2013-11-09 16:22:00,55.2,27.3,30.07,SSW,211,1.0,2.0,34,0.00,,,0.00,Wunderground v.1.15,2013-11-09 21:22:00,
2013-11-09 16:28:00,54.9,27.0,30.07,South,170,1.0,2.0,34,0.00,,,0.00,Wunderground v.1.15,2013-11-09 21:28:00,
2013-11-09 16:33:00,54.9,27.7,30.07,SE,130,1.0,2.0,35,0.00,,,0.00,Wunderground v.1.15,2013-11-09 21:33:00,
2013-11-09 16:38:00,54.5,28.1,30.06,SSE,167,1.0,2.0,36,0.00,,,0.00,Wunderground v.1.15,2013-11-09 21:38:00,
2013-11-09 16:43:00,54.3,27.9,30.06,South,188,0.0,2.0,36,0.00,,,0.00,Wunderground v.1.15,2013-11-09 21:43:00,
2013-11-09 16:49:00,54.7,29.6,30.06,South,184,1.0,5.0,38,0.00,,,0.00,Wunderground v.1.15,2013-11-09 21:49:00,
2013-11-09 16:54:00,53.6,27.9,30.06,SSW,202,2.0,2.0,37,0.00,,,0.00,Wunderground v.1.15,2013-11-09 21:54:00,
2013-11-09 16:59:00,52.7,30.8,30.06,SSW,202,1.0,2.0,43,0.00,,,0.00,Wunderground v.1.15,2013-11-09 21:59:00,
2013-11-09 17:04:00,51.1,31.6,30.06,SSW,202,0.0,0.0,47,0.00,,,0.00,Wunderground v.1.15,2013-11-09 22:04:00,
2013-11-09 17:10:00,49.9,31.0,30.06,SSW,202,0.0,0.0,48,0.00,,,0.00,Wunderground v.1.15,2013-11-09 22:10:00,
2013-11-09 17:16:00,49.6,30.0,30.06,SSW,202,0.0,1.0,48,0.00,,,0.00,weatherlink.com 1.10,2013-11-09 22:16:00,
2013-11-09 17:21:00,49.1,31.7,30.06,SSW,202,0.0,0.0,51,0.00,,,0.00,Wunderground v.1.15,2013-11-09 22:21:00,
2013-11-09 17:26:00,48.4,31.1,30.06,SSW,205,0.0,1.0,51,0.00,,,0.00,Wunderground v.1.15,2013-11-09 22:26:00,
2013-11-09 17:31:00,47.8,30.5,30.06,SSW,205,0.0,1.0,51,0.00,,,0.00,Wunderground v.1.15,2013-11-09 22:31:00,
2013-11-09 17:37:00,47.4,29.7,30.06,SSW,205,0.0,1.0,50,0.00,,,0.00,Wunderground v.1.15,2013-11-09 22:37:00,
2013-11-09 17:42:00,46.7,30.5,30.06,SSW,205,0.0,1.0,53,0.00,,,0.00,Wunderground v.1.15,2013-11-09 22:42:00,
2013-11-09 17:47:00,46.2,30.0,30.05,SSW,205,0.0,1.0,53,0.00,,,0.00,Wunderground v.1.15,2013-11-09 22:47:00,
2013-11-09 17:55:00,45.6,29.9,30.05,SSW,205,0.0,0.0,54,0.00,,,0.00,Wunderground v.1.15,2013-11-09 22:55:00,
2013-11-09 18:05:00,44.9,30.0,30.05,SSW,205,0.0,1.0,56,0.00,,,0.00,weatherlink.com 1.10,2013-11-09 23:05:00,
2013-11-09 18:11:00,44.6,29.9,30.05,SSW,205,0.0,0.0,56,0.00,,,0.00,Wunderground v.1.15,2013-11-09 23:11:00,
2013-11-09 18:17:00,44.3,30.4,30.05,SSW,205,0.0,0.0,58,0.00,,,0.00,Wunderground v.1.15,2013-11-09 23:17:00,
2013-11-09 18:22:00,43.8,30.0,30.05,SSW,205,0.0,0.0,58,0.00,,,0.00,Wunderground v.1.15,2013-11-09 23:22:00,
2013-11-09 18:27:00,43.5,30.1,30.05,SSW,205,0.0,0.0,59,0.00,,,0.00,Wunderground v.1.15,2013-11-09 23:27:00,
2013-11-09 18:34:00,43.0,29.6,30.05,SSW,205,0.0,0.0,59,0.00,,,0.00,Wunderground v.1.15,2013-11-09 23:34:00,
2013-11-09 18:39:00,42.6,30.5,30.05,SSW,205,0.0,0.0,62,0.00,,,0.00,Wunderground v.1.15,2013-11-09 23:39:00,
2013-11-09 18:44:00,42.3,30.2,30.05,SSW,205,0.0,1.0,62,0.00,,,0.00,Wunderground v.1.15,2013-11-09 23:44:00,
2013-11-09 18:50:00,42.1,30.4,30.05,SSW,205,0.0,1.0,63,0.00,,,0.00,Wunderground v.1.15,2013-11-09 23:50:00,
2013-11-09 18:56:00,41.7,30.0,30.05,SSW,205,0.0,1.0,63,0.00,,,0.00,Wunderground v.1.15,2013-11-09 23:56:00,
2013-11-09 19:02:00,41.4,29.0,30.05,SSW,205,1.0,1.0,62,0.00,,,0.00,weatherlink.com 1.10,2013-11-10 00:02:00,
2013-11-09 19:08:00,40.9,29.7,30.05,SSW,205,0.0,1.0,64,0.00,,,0.00,Wunderground v.1.15,2013-11-10 00:08:00,
2013-11-09 19:14:00,40.6,30.1,30.05,SSW,205,0.0,0.0,66,0.00,,,0.00,Wunderground v.1.15,2013-11-10 00:14:00,
2013-11-09 19:20:00,40.4,29.6,30.05,SSW,205,0.0,0.0,65,0.00,,,0.00,Wunderground v.1.15,2013-11-10 00:20:00,
2013-11-09 19:26:00,40.2,29.4,30.05,SSW,205,0.0,1.0,65,0.00,,,0.00,Wunderground v.1.15,2013-11-10 00:26:00,
2013-11-09 19:33:00,40.1,29.0,30.05,SSW,205,1.0,1.0,65,0.00,,,0.00,weatherlink.com 1.10,2013-11-10 00:33:00,
2013-11-09 19:39:00,40.1,29.6,30.04,SSW,205,0.0,1.0,66,0.00,,,0.00,Wunderground v.1.15,2013-11-10 00:39:00,
2013-11-09 19:44:00,39.7,30.0,30.04,SSW,205,0.0,0.0,68,0.00,,,0.00,Wunderground v.1.15,2013-11-10 00:44:00,
2013-11-09 19:50:00,39.4,30.4,30.04,SSW,205,0.0,0.0,70,0.00,,,0.00,Wunderground v.1.15,2013-11-10 00:50:00,
2013-11-09 19:56:00,39.3,30.3,30.04,South,182,0.0,2.0,70,0.00,,,0.00,Wunderground v.1.15,2013-11-10 00:56:00,
2013-11-09 20:02:00,39.2,31.0,30.04,South,182,0.0,2.0,71,0.00,,,0.00,weatherlink.com 1.10,2013-11-10 01:02:00,
2013-11-09 20:08:00,38.8,29.8,30.04,South,182,0.0,0.0,70,0.00,,,0.00,Wunderground v.1.15,2013-11-10 01:08:00,
2013-11-09 20:14:00,38.5,29.9,30.04,South,182,0.0,0.0,71,0.00,,,0.00,Wunderground v.1.15,2013-11-10 01:14:00,
2013-11-09 20:21:00,38.1,30.0,30.04,South,182,0.0,1.0,72,0.00,,,0.00,weatherlink.com 1.10,2013-11-10 01:21:00,
2013-11-09 20:28:00,38.0,30.1,30.04,South,182,0.0,1.0,73,0.00,,,0.00,Wunderground v.1.15,2013-11-10 01:28:00,
2013-11-09 20:37:00,37.7,29.5,30.04,South,182,0.0,0.0,72,0.00,,,0.00,Wunderground v.1.15,2013-11-10 01:37:00,
2013-11-09 20:43:00,37.6,29.7,30.04,South,182,0.0,1.0,73,0.00,,,0.00,Wunderground v.1.15,2013-11-10 01:43:00,
2013-11-09 20:49:00,37.4,30.2,30.04,South,182,0.0,1.0,75,0.00,,,0.00,Wunderground v.1.15,2013-11-10 01:49:00,
2013-11-09 20:54:00,37.2,30.3,30.04,South,182,0.0,0.0,76,0.00,,,0.00,Wunderground v.1.15,2013-11-10 01:54:00,
2013-11-09 21:08:00,37.1,30.0,30.04,South,182,0.0,1.0,75,0.00,,,0.00,weatherlink.com 1.10,2013-11-10 02:08:00,
2013-11-09 21:13:00,36.9,29.4,30.04,South,182,0.0,0.0,74,0.00,,,0.00,Wunderground v.1.15,2013-11-10 02:13:00,
2013-11-09 21:18:00,36.7,29.5,30.04,South,182,0.0,1.0,75,0.00,,,0.00,Wunderground v.1.15,2013-11-10 02:18:00,
2013-11-09 21:23:00,36.6,29.7,30.04,South,182,0.0,0.0,76,0.00,,,0.00,Wunderground v.1.15,2013-11-10 02:23:00,
2013-11-09 21:30:00,36.3,29.1,30.04,South,182,0.0,0.0,75,0.00,,,0.00,Wunderground v.1.15,2013-11-10 02:30:00,
2013-11-09 21:36:00,36.3,29.0,30.04,South,182,0.0,1.0,76,0.00,,,0.00,weatherlink.com 1.10,2013-11-10 02:36:00,
2013-11-09 21:42:00,36.1,29.6,30.04,South,182,0.0,1.0,77,0.00,,,0.00,Wunderground v.1.15,2013-11-10 02:42:00,
2013-11-09 21:48:00,36.0,30.1,30.04,South,182,0.0,1.0,79,0.00,,,0.00,Wunderground v.1.15,2013-11-10 02:48:00,
2013-11-09 21:54:00,35.7,29.8,30.04,South,182,0.0,1.0,79,0.00,,,0.00,Wunderground v.1.15,2013-11-10 02:54:00,
2013-11-09 22:02:00,35.5,29.6,30.04,South,182,0.0,0.0,79,0.00,,,0.00,Wunderground v.1.15,2013-11-10 03:02:00,
2013-11-09 22:09:00,35.3,28.8,30.04,South,182,0.0,0.0,77,0.00,,,0.00,Wunderground v.1.15,2013-11-10 03:09:00,
2013-11-09 22:17:00,35.2,29.0,30.04,South,182,0.0,1.0,78,0.00,,,0.00,Wunderground v.1.15,2013-11-10 03:17:00,
2013-11-09 22:23:00,35.0,29.1,30.04,South,182,0.0,1.0,79,0.00,,,0.00,Wunderground v.1.15,2013-11-10 03:23:00,
2013-11-09 22:28:00,34.9,29.0,30.04,South,182,0.0,1.0,79,0.00,,,0.00,Wunderground v.1.15,2013-11-10 03:28:00,
2013-11-09 22:34:00,34.7,29.5,30.04,South,182,0.0,0.0,81,0.00,,,0.00,Wunderground v.1.15,2013-11-10 03:34:00,
2013-11-09 22:39:00,34.5,29.3,30.04,South,182,0.0,0.0,81,0.00,,,0.00,Wunderground v.1.15,2013-11-10 03:39:00,
2013-11-09 22:45:00,34.4,29.2,30.04,South,182,0.0,1.0,81,0.00,,,0.00,Wunderground v.1.15,2013-11-10 03:45:00,
2013-11-09 22:52:00,34.2,29.0,30.04,South,182,0.0,0.0,81,0.00,,,0.00,Wunderground v.1.15,2013-11-10 03:52:00,
2013-11-09 22:57:00,34.1,29.2,30.04,South,182,0.0,0.0,82,0.00,,,0.00,Wunderground v.1.15,2013-11-10 03:57:00,
2013-11-09 23:03:00,33.9,28.7,30.04,South,182,0.0,1.0,81,0.00,,,0.00,Wunderground v.1.15,2013-11-10 04:03:00,
2013-11-09 23:09:00,33.8,28.9,30.04,South,182,0.0,1.0,82,0.00,,,0.00,Wunderground v.1.15,2013-11-10 04:09:00,
2013-11-09 23:14:00,33.6,28.7,30.04,South,182,0.0,0.0,82,0.00,,,0.00,Wunderground v.1.15,2013-11-10 04:14:00,
2013-11-09 23:22:00,33.4,28.8,30.04,South,182,0.0,0.0,83,0.00,,,0.00,Wunderground v.1.15,2013-11-10 04:22:00,
2013-11-09 23:29:00,33.3,29.0,30.04,South,182,0.0,0.0,84,0.00,,,0.00,Wunderground v.1.15,2013-11-10 04:29:00,
2013-11-09 23:34:00,33.2,28.9,30.04,South,182,0.0,1.0,84,0.00,,,0.00,Wunderground v.1.15,2013-11-10 04:34:00,
2013-11-09 23:39:00,33.1,28.8,30.04,South,182,0.0,1.0,84,0.00,,,0.00,Wunderground v.1.15,2013-11-10 04:39:00,
2013-11-09 23:44:00,33.1,28.8,30.04,South,182,0.0,1.0,84,0.00,,,0.00,Wunderground v.1.15,2013-11-10 04:44:00,
2013-11-09 23:50:00,33.1,28.8,30.04,South,182,0.0,1.0,84,0.00,,,0.00,Wunderground v.1.15,2013-11-10 04:50:00,
2013-11-09 23:56:00,32.8,29.1,30.03,South,182,0.0,1.0,86,0.00,,,0.00,Wunderground v.1.15,2013-11-10 04:56:00,